EW5562 Agios Dimitrios Viotias GR current weather conditions

sailwx.info

Wind from 289 at 1 knots gusting 5

Air temperature 8.9° C
Dewpoint 6.3° C

Last reported at 2019-Dec-05 18:58 UTC.
Time now 2019-Dec-05 20:09 UTC

Location: N 38°27' E 022°60'.
View on Google Maps.

See reports from other nearby stations

  
Tides and Currents Weather Stations Pressure Air Temp Water Temp Dewpoint Dewpoint Depression Visibility Wind Speed Wind Dir Waves Ship Positions
date/time (UTC)wind fromknots sea level pressurealtimeterstation pressurevisibilityair tempwater tempwave heightnotes
2019-Dec-05 18:58 289 1 gusting 5 8.9
2019-Dec-05 18:48 303 2 gusting 6 8.9
2019-Dec-05 18:38 296 3 gusting 6 8.9
2019-Dec-05 18:28 285 1 gusting 4 8.9
2019-Dec-05 18:18 274 1 gusting 6 8.9
2019-Dec-05 18:08 292 3 gusting 6 8.9
2019-Dec-05 17:58 298 4 gusting 7 8.9
2019-Dec-05 17:48 312 3 gusting 8 8.9
2019-Dec-05 17:38 290 5 gusting 7 8.9
2019-Dec-05 17:28 296 4 gusting 7 8.9
2019-Dec-05 17:18 283 1 gusting 5 8.9
2019-Dec-05 17:08 296 4 gusting 7 8.9
2019-Dec-05 16:58 275 2 gusting 5 8.9
2019-Dec-05 16:48 269 2 gusting 5 8.9
2019-Dec-05 16:38 279 2 gusting 7 8.9
2019-Dec-05 16:28 290 1 gusting 5 8.9
2019-Dec-05 16:18 257 1 gusting 7 8.9
2019-Dec-05 16:08 300 1 gusting 7 8.9
2019-Dec-05 15:58 290 2 gusting 6 8.9
2019-Dec-05 15:48 269 2 gusting 4 8.9
2019-Dec-05 15:38 282 0 gusting 2 8.9
2019-Dec-05 15:28 254 2 gusting 3 8.9
2019-Dec-05 15:18 299 8.9
2019-Dec-05 15:08 299 1 gusting 2 8.9
2019-Dec-05 14:58 299 0 gusting 3 8.9
2019-Dec-05 14:48 279 1 gusting 2 8.9
2019-Dec-05 14:38 345 0 gusting 2 9.4
2019-Dec-05 14:28 345 0 gusting 1 9.4
2019-Dec-05 14:18 345 9.4
2019-Dec-05 14:08 345 1 gusting 4 9.4
2019-Dec-05 13:58 238 2 gusting 4 9.4
2019-Dec-05 13:48 307 0 gusting 3 9.4
2019-Dec-05 13:38 296 3 gusting 5 9.4
2019-Dec-05 13:28 283 1 gusting 5 9.4
2019-Dec-05 13:18 288 2 gusting 6 9.4
2019-Dec-05 13:08 300 3 gusting 5 9.4
2019-Dec-05 12:58 299 1 gusting 3 9.4
2019-Dec-05 12:48 283 1 gusting 2 9.4
2019-Dec-05 12:38 283 0 gusting 3 9.4
2019-Dec-05 12:28 271 1 gusting 4 9.4
2019-Dec-05 12:18 336 1 gusting 4 9.4
2019-Dec-05 12:08 265 2 gusting 4 10.0
2019-Dec-05 11:58 200 10.0
2019-Dec-05 11:48 027 10.0
2019-Dec-05 11:38 329 10.0
2019-Dec-05 11:28 295 0 gusting 4 10.0
2019-Dec-05 11:18 303 2 gusting 7 10.0
2019-Dec-05 11:08 343 3 gusting 6 10.0
2019-Dec-05 10:58 350 1 gusting 5 10.0
2019-Dec-05 10:48 286 10.0
2019-Dec-05 10:38 303 3 gusting 8 10.0
2019-Dec-05 10:28 299 3 gusting 9 10.0
2019-Dec-05 10:18 305 3 gusting 6 10.0
2019-Dec-05 10:08 319 3 gusting 7 9.4
2019-Dec-05 09:58 330 2 gusting 6 9.4
2019-Dec-05 09:48 320 4 gusting 8 10.0
2019-Dec-05 09:38 333 4 gusting 9 9.4
2019-Dec-05 09:28 319 5 gusting 10 9.4
2019-Dec-05 09:18 309 5 gusting 10 9.4
2019-Dec-05 09:08 309 5 gusting 8 9.4
2019-Dec-05 08:58 324 3 gusting 7 9.4
2019-Dec-05 08:48 313 5 gusting 7 9.4
2019-Dec-05 08:38 295 4 gusting 8 9.4
2019-Dec-05 08:28 286 4 gusting 7 9.4
2019-Dec-05 08:18 288 3 gusting 5 9.4
2019-Dec-05 08:08 296 2 gusting 7 9.4
2019-Dec-05 07:58 292 4 gusting 7 9.4
2019-Dec-05 07:48 298 4 gusting 6 8.9
2019-Dec-05 07:38 292 4 gusting 7 8.9
2019-Dec-05 07:28 264 4 gusting 7 8.9
2019-Dec-05 07:18 272 3 gusting 6 8.9
2019-Dec-05 07:08 252 2 gusting 6 8.9
2019-Dec-05 06:58 305 3 gusting 7 8.9
2019-Dec-05 06:48 298 1 gusting 5 8.9
2019-Dec-05 06:38 279 6 gusting 8 8.3
2019-Dec-05 06:28 299 4 gusting 8 8.3
2019-Dec-05 06:18 282 6 gusting 10 8.3
2019-Dec-05 06:08 306 6 gusting 7 8.3
2019-Dec-05 05:58 296 4 gusting 5
2019-Dec-05 05:48 283 5 gusting 5
2019-Dec-05 05:38
2019-Dec-05 05:28 293 8 gusting 8
2019-Dec-05 05:18 289 6 gusting 9 8.3
2019-Dec-05 05:08
2019-Dec-05 04:58
2019-Dec-05 04:48
2019-Dec-05 04:38
2019-Dec-05 04:28
2019-Dec-05 04:18
2019-Dec-05 04:08
2019-Dec-05 03:58
2019-Dec-05 03:48
2019-Dec-05 03:38
2019-Dec-05 03:28
2019-Dec-05 03:18
2019-Dec-05 03:08
2019-Dec-05 02:58
2019-Dec-05 02:48
2019-Dec-05 02:38
2019-Dec-05 02:28 334 0 gusting 0
2019-Dec-05 02:18
2019-Dec-05 02:08
2019-Dec-05 01:58
2019-Dec-05 01:48
2019-Dec-05 01:38
2019-Dec-05 01:28
2019-Dec-05 01:18
2019-Dec-05 01:08 279 7 gusting 7 8.3
2019-Dec-05 00:58 316 4 gusting 8 8.3
2019-Dec-05 00:48 303 4 gusting 8 8.3
2019-Dec-05 00:38 285 4 gusting 6 8.3
2019-Dec-05 00:28 295 3 gusting 7 8.3
2019-Dec-05 00:18 312 3 gusting 8 8.3
2019-Dec-05 00:08 298 6 gusting 10 8.3
2019-Dec-04 23:58 313 5 gusting 9 8.3
2019-Dec-04 23:48 310 6 gusting 10 8.3
2019-Dec-04 23:38 299 6 gusting 11 8.3
2019-Dec-04 23:28 286 6 gusting 10 8.3
2019-Dec-04 23:18 278 6 gusting 10 8.3
2019-Dec-04 23:08 286 4 gusting 9 8.3
2019-Dec-04 22:58 300 4 gusting 8 8.3
2019-Dec-04 22:48 292 4 gusting 9 8.3
2019-Dec-04 22:38 281 5 gusting 9 8.3
2019-Dec-04 22:28 305 6 gusting 9 8.3
2019-Dec-04 22:18 299 5 gusting 10 8.3
2019-Dec-04 22:08 302 6 gusting 9 8.3
2019-Dec-04 21:58 290 6 gusting 10 8.3
2019-Dec-04 21:48 296 6 gusting 9 8.3
2019-Dec-04 21:38 300 5 gusting 10 8.3
2019-Dec-04 21:28 286 6 gusting 10 8.3
2019-Dec-04 21:18 272 5 gusting 8 8.3
2019-Dec-04 21:08 303 6 gusting 10 8.3
2019-Dec-04 20:58 307 6 gusting 9 8.3
2019-Dec-04 20:48 313 5 gusting 9 8.3
2019-Dec-04 20:38 316 6 gusting 10 8.3
2019-Dec-04 20:28 309 6 gusting 10 8.3
2019-Dec-04 20:18 290 6 gusting 8 8.3
2019-Dec-04 20:08 261 2 gusting 8 8.3
2019-Dec-04 19:58 296 4 gusting 7 8.3
2019-Dec-04 19:48 306 2 gusting 7 8.3
2019-Dec-04 19:38 289 2 gusting 4 8.3
2019-Dec-04 19:28 286 3 gusting 6 8.3
2019-Dec-04 19:18 320 4 gusting 7 8.3
2019-Dec-04 19:08 316 3 gusting 9 8.3
2019-Dec-04 18:58 298 5 gusting 9 8.3
2019-Dec-04 18:48 299 5 gusting 8 8.3
2019-Dec-04 18:38 296 5 gusting 8 8.3
2019-Dec-04 18:28 275 3 gusting 7 8.3
2019-Dec-04 18:18 324 4 gusting 8 8.3
2019-Dec-04 18:08 289 4 gusting 7 8.3
2019-Dec-04 17:58 265 3 gusting 6 7.8
2019-Dec-04 17:48 274 3 gusting 7 7.8
2019-Dec-04 17:38 264 3 gusting 8 7.8
2019-Dec-04 17:28 275 4 gusting 6 7.8
2019-Dec-04 17:18 275 2 gusting 4 8.3
2019-Dec-04 17:08 278 0 gusting 3 8.3
2019-Dec-04 16:58 275 2 gusting 4 8.3
2019-Dec-04 16:48 293 1 gusting 3 8.3
2019-Dec-04 16:38 293 0 gusting 1 8.3
2019-Dec-04 16:28 286 0 gusting 2 8.3
2019-Dec-04 16:18 247 0 gusting 2 8.3
2019-Dec-04 16:08 269 1 gusting 3 8.9
2019-Dec-04 15:58 293 0 gusting 5 8.9
2019-Dec-04 15:48 326 2 gusting 4 8.9
2019-Dec-04 15:38 282 2 gusting 5 8.9
2019-Dec-04 15:28 329 1 gusting 7 8.9
2019-Dec-04 15:17 299 1 gusting 7 8.9
2019-Dec-04 15:07 307 3 gusting 8 8.9
2019-Dec-04 14:58 312 4 gusting 6 8.9
2019-Dec-04 14:47 327 5 gusting 8 8.9
2019-Dec-04 14:38 317 3 gusting 8 8.9
2019-Dec-04 14:28 323 4 gusting 9 9.4
2019-Dec-04 14:18 336 4 gusting 8 9.4
2019-Dec-04 14:08 357 3 gusting 7 9.4
2019-Dec-04 13:58 330 6 gusting 8 9.4
2019-Dec-04 13:38 341 5 gusting 8 9.4
2019-Dec-04 13:27 285 2 gusting 6 9.4
2019-Dec-04 13:18 354 4 gusting 5 9.4
2019-Dec-04 13:08 338 3 gusting 5 9.4
2019-Dec-04 12:58 334 0 gusting 6 9.4
2019-Dec-04 12:48 238 2 gusting 6 9.4
2019-Dec-04 12:38 298 3 gusting 7 9.4
2019-Dec-04 12:27 314 2 gusting 3 9.4
2019-Dec-04 12:17 303 9.4
2019-Dec-04 12:08 334 2 gusting 9 9.4
2019-Dec-04 11:58 344 5 gusting 11 9.4
2019-Dec-04 11:48 345 7 gusting 13 9.4
2019-Dec-04 11:38 324 6 gusting 14 9.4
2019-Dec-04 11:27 323 6 gusting 11 9.4
2019-Dec-04 11:17 350 4 gusting 8 9.4
2019-Dec-04 11:08 333 0 gusting 5 9.4
2019-Dec-04 10:57 292 1 gusting 3 9.4
2019-Dec-04 10:47 317 1 gusting 5 9.4
2019-Dec-04 10:38 251 4 gusting 6 9.4
2019-Dec-04 10:28 235 4 gusting 7 9.4
2019-Dec-04 10:17 285 0 gusting 3 9.4
2019-Dec-04 10:08 264 1 gusting 6 9.4
2019-Dec-04 09:58 312 0 gusting 4 9.4
2019-Dec-04 09:47 034 1 gusting 5 9.4
2019-Dec-04 09:38 331 3 gusting 10 9.4
2019-Dec-04 09:27 341 5 gusting 8 9.4
2019-Dec-04 09:18 9.4
2019-Dec-04 09:08 307 6 gusting 8 9.4
2019-Dec-04 08:57 344 2 gusting 4 9.4
2019-Dec-04 08:47 254 10.0
2019-Dec-04 08:38 152 9.4
2019-Dec-04 08:28 354 5 gusting 12 9.4
2019-Dec-04 08:17 004 7 gusting 20 10.0
2019-Dec-04 08:08 038 7 gusting 12 9.4
2019-Dec-04 07:57 10.0
2019-Dec-04 07:48 003 9 gusting 14 10.0
2019-Dec-04 07:37 10.0
2019-Dec-04 07:28 354 2 gusting 8 10.0
2019-Dec-04 07:17 013 6 gusting 14 9.4
2019-Dec-04 07:08 309 10.0
2019-Dec-04 06:57 268 1 gusting 4 10.0
2019-Dec-04 06:47 262 3 gusting 5 10.6
2019-Dec-04 06:37 283 6 gusting 13 10.6
2019-Dec-04 06:27 353 10 gusting 13 10.0
2019-Dec-04 06:18
2019-Dec-04 06:08 348 6 gusting 13 10.6
2019-Dec-04 05:57 021 11 gusting 24 10.6
2019-Dec-04 05:47 10.6
2019-Dec-04 05:37 11.1
2019-Dec-04 05:27 314 1 gusting 12 11.1
2019-Dec-04 05:17 348 6 gusting 10 11.1
2019-Dec-04 05:07 347 4 gusting 11 11.1
2019-Dec-04 04:57 357 9 gusting 18 11.1
2019-Dec-04 04:47 11.7
2019-Dec-04 04:37 11.7
2019-Dec-04 04:27 345 0 gusting 2 11.7
2019-Dec-04 04:17 006 11.7
2019-Dec-04 04:07 030 0 gusting 2 11.7
2019-Dec-04 03:57 003 6 gusting 9 11.7
2019-Dec-04 03:47 010 1 gusting 9 11.7
2019-Dec-04 03:37 011 6 gusting 12 12.2
2019-Dec-04 03:27 042 6 gusting 12 12.2
2019-Dec-04 03:17 041 9 gusting 13 12.2
2019-Dec-04 03:07 018 6 gusting 16 12.2
2019-Dec-04 02:57 358 12 gusting 15 12.8
2019-Dec-04 02:47 030 6 gusting 11 12.8
2019-Dec-04 02:38 037 6 gusting 10 12.8
2019-Dec-04 02:28 008 4 gusting 10 12.8
2019-Dec-04 02:17 020 7 gusting 12 12.8
2019-Dec-04 02:07 006 11 gusting 11
2019-Dec-04 01:57 004 6 gusting 9 12.2
2019-Dec-04 01:47 023 1 gusting 3 11.7
2019-Dec-04 01:37 358 0 gusting 2 11.7
2019-Dec-04 01:28 358 1 gusting 2 11.1
2019-Dec-04 01:17 358 1 gusting 3 10.6
2019-Dec-04 01:07 268 0 gusting 1 11.1
2019-Dec-04 00:57 266 0 gusting 1 11.1
2019-Dec-04 00:48 266 1 gusting 1 11.1
2019-Dec-04 00:37 266 0 gusting 2 11.1
2019-Dec-04 00:27 274 1 gusting 1 11.1
2019-Dec-04 00:17 264 0 gusting 1 11.1
2019-Dec-04 00:07 226 0 gusting 0 11.7
2019-Dec-03 23:57 227 0 gusting 0
2019-Dec-03 23:47 227 11.7
2019-Dec-03 23:37 227 12.2
2019-Dec-03 23:27 227 11.7
2019-Dec-03 23:18 226 11.7
2019-Dec-03 23:07 226 11.7
2019-Dec-03 22:57 226 11.1
2019-Dec-03 22:47 226 2 gusting 2 11.1
2019-Dec-03 22:37 226 1 gusting 3 11.1
2019-Dec-03 22:27 252 1 gusting 1 11.7
2019-Dec-03 22:17 358 0 gusting 1 11.7
2019-Dec-03 22:07 10.6
2019-Dec-03 21:57 10.6
2019-Dec-03 21:47 034 1 gusting 1 11.1
2019-Dec-03 21:37 034 0 gusting 1 10.6
2019-Dec-03 21:27 196 10.6
2019-Dec-03 21:17 195 0 gusting 4 10.6
2019-Dec-03 21:07 216 2 gusting 2 11.1
2019-Dec-03 20:57 275 0 gusting 4 11.1
2019-Dec-03 20:47 286 1 gusting 4 11.1
2019-Dec-03 20:37 283 1 gusting 5 11.7
2019-Dec-03 20:28 316 2 gusting 2 11.7
2019-Dec-03 20:18 241 0 gusting 0
2019-Dec-03 20:07